createdAt,value
2017-10-18T00:00:16.652Z,99.99
2017-10-18T00:01:16.633Z,99.99
2017-10-18T00:02:16.601Z,99.99
2017-10-18T00:03:16.711Z,99.99
2017-10-18T00:04:16.242Z,99.99
2017-10-18T00:05:16.541Z,99.99
2017-10-18T00:06:16.532Z,99.99
2017-10-18T00:07:16.532Z,99.99
2017-10-18T00:08:16.172Z,99.99
2017-10-18T00:09:16.544Z,99.99
2017-10-18T00:10:16.131Z,99.99
2017-10-18T00:11:16.225Z,99.99
2017-10-18T00:12:16.414Z,99.99
2017-10-18T00:13:16.402Z,99.99
2017-10-18T00:14:16.386Z,99.99
2017-10-18T00:15:16.360Z,99.99
2017-10-18T00:16:16.340Z,99.99
2017-10-18T00:17:16.333Z,99.99
2017-10-18T00:18:16.311Z,99.99
2017-10-18T00:19:16.301Z,99.99
2017-10-18T00:20:16.342Z,99.99
2017-10-18T00:21:16.258Z,99.99
2017-10-18T00:22:16.238Z,99.99
2017-10-18T00:23:16.220Z,99.99
2017-10-18T00:24:16.205Z,99.99
2017-10-18T00:25:16.186Z,99.99
2017-10-18T00:26:16.173Z,99.99
2017-10-18T00:27:16.142Z,99.99
2017-10-18T00:28:16.138Z,99.99
2017-10-18T00:29:16.101Z,99.99
2017-10-18T00:30:16.092Z,99.99
2017-10-18T00:31:16.071Z,99.99
2017-10-18T00:32:16.063Z,99.99
2017-10-18T00:33:16.044Z,99.99
2017-10-18T00:34:16.015Z,99.99
2017-10-18T00:35:15.991Z,99.99
2017-10-18T00:36:15.984Z,99.99
2017-10-18T00:37:15.961Z,99.99
2017-10-18T00:38:15.931Z,99.99
2017-10-18T00:39:15.924Z,99.99
2017-10-18T00:40:15.904Z,99.99
2017-10-18T00:41:15.902Z,99.99
2017-10-18T00:42:15.542Z,99.99
2017-10-18T00:43:15.852Z,99.99
2017-10-18T00:44:15.511Z,99.99
2017-10-18T00:45:15.812Z,99.99
2017-10-18T00:46:15.472Z,99.99
2017-10-18T00:47:15.460Z,99.99
2017-10-18T00:48:15.431Z,99.99
2017-10-18T00:49:15.743Z,99.99
2017-10-18T00:50:15.400Z,99.99
2017-10-18T00:51:15.711Z,99.99
2017-10-18T00:52:15.681Z,99.99
2017-10-18T00:53:15.671Z,99.99
2017-10-18T00:54:15.649Z,99.99
2017-10-18T00:55:15.311Z,99.99
2017-10-18T00:56:15.606Z,99.99
2017-10-18T00:57:15.603Z,99.99
2017-10-18T00:58:15.250Z,99.99
2017-10-18T00:59:15.244Z,99.99
2017-10-18T01:00:15.566Z,99.99
2017-10-18T01:01:15.522Z,99.99
2017-10-18T01:02:15.505Z,99.99
2017-10-18T01:03:15.158Z,99.99
2017-10-18T01:04:15.460Z,99.99
2017-10-18T01:05:15.451Z,99.99
2017-10-18T01:06:15.431Z,99.99
2017-10-18T01:07:15.411Z,99.99
2017-10-18T01:08:15.071Z,99.99
2017-10-18T01:09:15.433Z,99.99
2017-10-18T01:10:15.031Z,99.99
2017-10-18T01:11:15.443Z,99.99
2017-10-18T01:12:15.319Z,99.99
2017-10-18T01:13:15.399Z,99.99
2017-10-18T01:14:15.278Z,99.99
2017-10-18T01:15:15.261Z,99.99
2017-10-18T01:16:14.923Z,99.99
2017-10-18T01:17:15.241Z,99.99
2017-10-18T01:18:15.212Z,99.99
2017-10-18T01:19:15.230Z,99.99
2017-10-18T01:20:15.180Z,99.99
2017-10-18T01:21:15.163Z,99.99
2017-10-18T01:22:14.810Z,99.99
2017-10-18T01:23:14.945Z,99.99
2017-10-18T01:24:14.771Z,99.99
2017-10-18T01:25:15.079Z,99.99
2017-10-18T01:26:15.064Z,99.99
2017-10-18T01:27:14.716Z,99.99
2017-10-18T01:28:15.039Z,99.99
2017-10-18T01:29:15.020Z,99.99
2017-10-18T01:30:14.662Z,99.99
2017-10-18T01:31:14.750Z,99.99
2017-10-18T01:32:14.629Z,99.99
2017-10-18T01:33:14.937Z,99.99
2017-10-18T01:34:14.589Z,99.99
2017-10-18T01:35:14.589Z,99.99
2017-10-18T01:36:14.547Z,99.99
2017-10-18T01:37:14.584Z,99.99
2017-10-18T01:38:14.529Z,99.99
2017-10-18T01:39:14.545Z,99.99
2017-10-18T01:40:14.805Z,99.99
2017-10-18T01:41:14.519Z,99.99
2017-10-18T01:42:14.440Z,99.99
2017-10-18T01:43:14.842Z,99.99
2017-10-18T01:44:14.742Z,99.99
2017-10-18T01:45:14.721Z,99.99
2017-10-18T01:46:14.697Z,99.99
2017-10-18T01:47:14.702Z,99.99
2017-10-18T01:48:14.654Z,99.99
2017-10-18T01:49:14.631Z,99.99
2017-10-18T01:50:14.292Z,99.99
2017-10-18T01:51:14.285Z,99.99
2017-10-18T01:52:14.635Z,99.99
2017-10-18T01:53:14.559Z,99.99
2017-10-18T01:54:14.616Z,99.99
2017-10-18T01:55:14.522Z,99.99
2017-10-18T01:56:14.506Z,99.99
2017-10-18T01:57:14.487Z,99.99
2017-10-18T01:58:14.512Z,99.99
2017-10-18T01:59:14.453Z,99.99
2017-10-18T02:00:14.431Z,99.99
2017-10-18T02:01:14.413Z,99.99
2017-10-18T02:02:14.399Z,99.99
2017-10-18T02:03:14.392Z,99.99
2017-10-18T02:04:14.362Z,99.99
2017-10-18T02:05:14.335Z,99.99
2017-10-18T02:06:14.339Z,99.99
2017-10-18T02:07:14.301Z,99.99
2017-10-18T02:08:14.292Z,99.99
2017-10-18T02:09:14.266Z,99.99
2017-10-18T02:10:14.264Z,99.99
2017-10-18T02:11:14.227Z,99.99
2017-10-18T02:12:14.256Z,99.99
2017-10-18T02:13:14.243Z,99.99
2017-10-18T02:14:13.852Z,99.99
2017-10-18T02:15:13.832Z,99.99
2017-10-18T02:16:14.142Z,99.99
2017-10-18T02:17:14.129Z,99.99
2017-10-18T02:18:14.109Z,99.99
2017-10-18T02:19:13.760Z,99.99
2017-10-18T02:20:14.065Z,99.99
2017-10-18T02:21:14.052Z,99.99
2017-10-18T02:22:13.704Z,99.99
2017-10-18T02:23:13.682Z,99.99
2017-10-18T02:24:13.993Z,99.99
2017-10-18T02:25:13.649Z,99.99
2017-10-18T02:26:13.954Z,99.99
2017-10-18T02:27:13.612Z,99.99
2017-10-18T02:28:13.917Z,99.99
2017-10-18T02:29:13.891Z,99.99
2017-10-18T02:30:13.896Z,99.99
2017-10-18T02:31:13.862Z,99.99
2017-10-18T02:32:13.530Z,99.99
2017-10-18T02:33:13.821Z,99.99
2017-10-18T02:34:13.812Z,99.99
2017-10-18T02:35:13.781Z,99.99
2017-10-18T02:36:13.449Z,99.99
2017-10-18T02:37:13.752Z,99.99
2017-10-18T02:38:13.734Z,99.99
2017-10-18T02:39:13.709Z,99.99
2017-10-18T02:40:13.691Z,99.99
2017-10-18T02:41:13.354Z,99.99
2017-10-18T02:42:13.659Z,99.99
2017-10-18T02:43:13.687Z,99.99
2017-10-18T02:44:13.630Z,99.99
2017-10-18T02:45:13.620Z,99.99
2017-10-18T02:46:13.587Z,99.99
2017-10-18T02:47:13.574Z,99.99
2017-10-18T02:48:13.551Z,99.99
2017-10-18T02:49:13.200Z,99.99
2017-10-18T02:50:13.521Z,99.99
2017-10-18T02:51:13.491Z,99.99
2017-10-18T02:52:13.498Z,99.99
2017-10-18T02:53:13.132Z,99.99
2017-10-18T02:54:13.451Z,99.99
2017-10-18T02:55:13.100Z,99.99
2017-10-18T02:56:13.093Z,99.99
2017-10-18T02:57:13.390Z,99.99
2017-10-18T02:58:13.371Z,99.99
2017-10-18T02:59:13.339Z,99.99
2017-10-18T03:00:13.002Z,99.99
2017-10-18T03:01:13.308Z,99.99
2017-10-18T03:02:13.291Z,99.99
2017-10-18T03:03:13.322Z,99.99
2017-10-18T03:04:13.265Z,99.99
2017-10-18T03:05:12.913Z,99.99
2017-10-18T03:06:13.211Z,99.99
2017-10-18T03:07:13.204Z,99.99
2017-10-18T03:08:13.183Z,99.99
2017-10-18T03:09:13.163Z,99.99
2017-10-18T03:10:13.141Z,99.99
2017-10-18T03:11:13.120Z,99.99
2017-10-18T03:12:13.101Z,99.99
2017-10-18T03:13:13.130Z,99.99
2017-10-18T03:14:13.072Z,99.99
2017-10-18T03:15:13.052Z,99.99
2017-10-18T03:16:13.034Z,99.99
2017-10-18T03:17:13.012Z,99.99
2017-10-18T03:18:12.680Z,99.99
2017-10-18T03:19:13.021Z,99.99
2017-10-18T03:20:13.024Z,99.99
2017-10-18T03:21:12.621Z,99.99
2017-10-18T03:22:12.974Z,99.99
2017-10-18T03:23:13.155Z,99.99
2017-10-18T03:24:12.566Z,99.99
2017-10-18T03:25:12.861Z,99.99
2017-10-18T03:26:12.522Z,99.99
2017-10-18T03:27:12.834Z,99.99
2017-10-18T03:28:12.811Z,99.99
2017-10-18T03:29:12.793Z,99.99
2017-10-18T03:30:12.791Z,99.99
2017-10-18T03:31:12.432Z,99.99
2017-10-18T03:32:12.741Z,99.99
2017-10-18T03:33:12.711Z,99.99
2017-10-18T03:34:12.780Z,99.99
2017-10-18T03:35:12.683Z,99.99
2017-10-18T03:36:12.675Z,99.99
2017-10-18T03:37:12.643Z,99.99
2017-10-18T03:38:12.650Z,99.99
2017-10-18T03:39:12.604Z,99.99
2017-10-18T03:40:12.591Z,99.99
2017-10-18T03:41:12.571Z,99.99
2017-10-18T03:42:12.585Z,99.99
2017-10-18T03:43:12.532Z,99.99
2017-10-18T03:44:12.204Z,99.99
2017-10-18T03:45:12.503Z,99.99
2017-10-18T03:46:12.158Z,99.99
2017-10-18T03:47:12.141Z,99.99
2017-10-18T03:48:12.441Z,99.99
2017-10-18T03:49:12.098Z,99.99
2017-10-18T03:50:12.415Z,99.99
2017-10-18T03:51:12.393Z,99.99
2017-10-18T03:52:12.052Z,99.99
2017-10-18T03:53:12.031Z,99.99
2017-10-18T03:54:12.011Z,99.99
2017-10-18T03:55:11.991Z,99.99
2017-10-18T03:56:12.290Z,99.99
2017-10-18T03:57:12.276Z,99.99
2017-10-18T03:58:12.262Z,99.99
2017-10-18T03:59:12.247Z,99.99
2017-10-18T04:00:12.220Z,99.99
2017-10-18T04:01:11.881Z,99.99
2017-10-18T04:02:12.197Z,99.99
2017-10-18T04:03:11.846Z,99.99
2017-10-18T04:04:12.150Z,99.99
2017-10-18T04:05:12.141Z,99.99
2017-10-18T04:06:12.112Z,99.99
2017-10-18T04:07:12.120Z,99.99
2017-10-18T04:08:12.082Z,99.99
2017-10-18T04:09:12.062Z,99.99
2017-10-18T04:10:12.033Z,99.99
2017-10-18T04:11:12.022Z,99.99
2017-10-18T04:12:12.012Z,99.99
2017-10-18T04:13:11.982Z,99.99
2017-10-18T04:14:11.973Z,99.99
2017-10-18T04:15:11.965Z,99.99
2017-10-18T04:16:11.933Z,99.99
2017-10-18T04:17:11.924Z,99.99
2017-10-18T04:18:11.901Z,99.99
2017-10-18T04:19:11.869Z,99.99
2017-10-18T04:20:11.862Z,99.99
2017-10-18T04:21:11.851Z,99.99
2017-10-18T04:22:11.833Z,99.99
2017-10-18T04:23:11.795Z,99.99
2017-10-18T04:24:11.782Z,99.99
2017-10-18T04:25:11.441Z,99.99
2017-10-18T04:26:11.752Z,99.99
2017-10-18T04:27:11.732Z,99.99
2017-10-18T04:28:11.711Z,99.99
2017-10-18T04:29:11.372Z,99.99
2017-10-18T04:30:11.674Z,99.99
2017-10-18T04:31:11.664Z,99.99
2017-10-18T04:32:11.641Z,99.99
2017-10-18T04:33:11.310Z,99.99
2017-10-18T04:34:11.279Z,99.99
2017-10-18T04:35:11.582Z,99.99
2017-10-18T04:36:11.566Z,99.99
2017-10-18T04:37:11.542Z,99.99
2017-10-18T04:38:11.528Z,99.99
2017-10-18T04:39:11.512Z,99.99
2017-10-18T04:40:11.504Z,99.99
2017-10-18T04:41:11.471Z,99.99
2017-10-18T04:42:11.461Z,99.99
2017-10-18T04:43:11.434Z,99.99
2017-10-18T04:44:11.429Z,99.99
2017-10-18T04:45:11.401Z,99.99
2017-10-18T04:46:11.382Z,99.99
2017-10-18T04:47:11.355Z,99.99
2017-10-18T04:48:11.343Z,99.99
2017-10-18T04:49:11.009Z,99.99
2017-10-18T04:50:11.330Z,99.99
2017-10-18T04:51:11.292Z,99.99
2017-10-18T04:52:11.281Z,99.99
2017-10-18T04:53:10.929Z,99.99
2017-10-18T04:54:11.230Z,99.99
2017-10-18T04:55:10.896Z,99.99
2017-10-18T04:56:11.200Z,99.99
2017-10-18T04:57:11.191Z,99.99
2017-10-18T04:58:11.174Z,99.99
2017-10-18T04:59:11.144Z,99.99
2017-10-18T05:00:11.140Z,99.99
2017-10-18T05:01:10.780Z,99.99
2017-10-18T05:02:11.080Z,99.99
2017-10-18T05:03:11.070Z,99.99
2017-10-18T05:04:11.061Z,99.99
2017-10-18T05:05:10.708Z,99.99
2017-10-18T05:06:10.702Z,99.99
2017-10-18T05:07:10.682Z,99.99
2017-10-18T05:08:10.665Z,99.99
2017-10-18T05:09:10.957Z,99.99
2017-10-18T05:10:10.951Z,99.99
2017-10-18T05:11:10.930Z,99.99
2017-10-18T05:12:10.614Z,99.99
2017-10-18T05:13:10.562Z,99.99
2017-10-18T05:14:10.554Z,99.99
2017-10-18T05:15:10.526Z,99.99
2017-10-18T05:16:10.512Z,99.99
2017-10-18T05:17:10.493Z,99.99
2017-10-18T05:18:10.486Z,99.99
2017-10-18T05:19:10.781Z,99.99
2017-10-18T05:20:10.771Z,99.99
2017-10-18T05:21:10.415Z,99.99
2017-10-18T05:22:10.731Z,99.99
2017-10-18T05:23:10.721Z,99.99
2017-10-18T05:24:10.690Z,99.99
2017-10-18T05:25:10.673Z,99.99
2017-10-18T05:26:10.342Z,99.99
2017-10-18T05:27:10.634Z,99.99
2017-10-18T05:28:10.610Z,99.99
2017-10-18T05:29:10.618Z,99.99
2017-10-18T05:30:10.581Z,99.99
2017-10-18T05:31:10.582Z,99.99
2017-10-18T05:32:10.219Z,99.99
2017-10-18T05:33:10.532Z,99.99
2017-10-18T05:34:10.502Z,99.99
2017-10-18T05:35:10.164Z,99.99
2017-10-18T05:36:10.463Z,99.99
2017-10-18T05:37:10.126Z,99.99
2017-10-18T05:38:10.109Z,99.99
2017-10-18T05:39:10.427Z,99.99
2017-10-18T05:40:10.401Z,99.99
2017-10-18T05:41:10.371Z,99.99
2017-10-18T05:42:10.368Z,99.99
2017-10-18T05:43:10.021Z,99.99
2017-10-18T05:44:10.324Z,99.99
2017-10-18T05:45:10.348Z,99.99
2017-10-18T05:46:10.292Z,99.99
2017-10-18T05:47:09.951Z,99.99
2017-10-18T05:48:10.234Z,99.99
2017-10-18T05:49:10.237Z,99.99
2017-10-18T05:50:10.229Z,99.99
2017-10-18T05:51:10.202Z,99.99
2017-10-18T05:52:10.182Z,99.99
2017-10-18T05:53:10.159Z,99.99
2017-10-18T05:54:09.814Z,99.99
2017-10-18T05:55:10.143Z,99.99
2017-10-18T05:56:09.783Z,99.99
2017-10-18T05:57:10.090Z,99.99
2017-10-18T05:58:09.750Z,99.99
2017-10-18T05:59:09.727Z,99.99
2017-10-18T06:00:09.711Z,99.99
2017-10-18T06:01:10.011Z,99.99
2017-10-18T06:02:09.681Z,99.99
2017-10-18T06:03:09.985Z,99.99
2017-10-18T06:04:09.954Z,99.99
2017-10-18T06:05:09.616Z,99.99
2017-10-18T06:06:09.921Z,99.99
2017-10-18T06:07:09.577Z,99.99
2017-10-18T06:08:09.909Z,99.99
2017-10-18T06:09:09.549Z,99.99
2017-10-18T06:10:09.524Z,99.99
2017-10-18T06:11:09.510Z,99.99
2017-10-18T06:12:09.487Z,99.99
2017-10-18T06:13:09.800Z,99.99
2017-10-18T06:14:09.770Z,99.99
2017-10-18T06:15:09.764Z,99.99
2017-10-18T06:16:09.744Z,99.99
2017-10-18T06:17:09.721Z,99.99
2017-10-18T06:18:09.696Z,99.99
2017-10-18T06:19:09.361Z,99.99
2017-10-18T06:20:09.673Z,99.99
2017-10-18T06:21:09.654Z,99.99
2017-10-18T06:22:09.628Z,99.99
2017-10-18T06:23:09.601Z,99.99
2017-10-18T06:24:09.272Z,99.99
2017-10-18T06:25:09.578Z,99.99
2017-10-18T06:26:09.561Z,99.99
2017-10-18T06:27:09.529Z,99.99
2017-10-18T06:28:09.514Z,99.99
2017-10-18T06:29:09.224Z,99.99
2017-10-18T06:30:09.473Z,99.99
2017-10-18T06:31:09.472Z,99.99
2017-10-18T06:32:09.452Z,99.99
2017-10-18T06:33:09.433Z,99.99
2017-10-18T06:34:09.402Z,99.99
2017-10-18T06:35:09.053Z,99.99
2017-10-18T06:36:09.372Z,99.99
2017-10-18T06:37:09.353Z,99.99
2017-10-18T06:38:09.001Z,99.99
2017-10-18T06:39:09.300Z,99.99
2017-10-18T06:40:09.305Z,99.99
2017-10-18T06:41:09.282Z,99.99
2017-10-18T06:42:09.262Z,99.99
2017-10-18T06:43:09.223Z,99.99
2017-10-18T06:44:08.891Z,99.99
2017-10-18T06:45:09.190Z,99.99
2017-10-18T06:46:09.171Z,99.99
2017-10-18T06:47:09.151Z,99.99
2017-10-18T06:48:09.138Z,99.99
2017-10-18T06:49:09.111Z,99.99
2017-10-18T06:50:09.100Z,99.99
2017-10-18T06:51:09.081Z,99.99
2017-10-18T06:52:09.050Z,99.99
2017-10-18T06:53:09.042Z,99.99
2017-10-18T06:54:09.021Z,99.99
2017-10-18T06:55:08.992Z,99.99
2017-10-18T06:56:08.989Z,99.99
2017-10-18T06:57:08.975Z,99.99
2017-10-18T06:58:08.624Z,99.99
2017-10-18T06:59:08.601Z,99.99
2017-10-18T07:00:08.911Z,99.99
2017-10-18T07:01:08.892Z,99.99
2017-10-18T07:02:08.877Z,99.99
2017-10-18T07:03:08.849Z,99.99
2017-10-18T07:04:08.822Z,99.99
2017-10-18T07:05:08.489Z,99.99
2017-10-18T07:06:08.809Z,99.99
2017-10-18T07:07:08.780Z,99.99
2017-10-18T07:08:08.761Z,99.99
2017-10-18T07:09:08.407Z,99.99
2017-10-18T07:10:08.721Z,99.99
2017-10-18T07:11:08.371Z,99.99
2017-10-18T07:12:08.359Z,99.99
2017-10-18T07:13:08.335Z,99.99
2017-10-18T07:14:08.311Z,99.99
2017-10-18T07:15:08.300Z,99.99
2017-10-18T07:16:08.610Z,99.99
2017-10-18T07:17:08.584Z,99.99
2017-10-18T07:18:08.570Z,99.99
2017-10-18T07:19:08.539Z,99.99
2017-10-18T07:20:08.531Z,99.99
2017-10-18T07:21:08.180Z,99.99
2017-10-18T07:22:08.491Z,99.99
2017-10-18T07:23:08.460Z,99.99
2017-10-18T07:24:08.461Z,99.99
2017-10-18T07:25:08.440Z,99.99
2017-10-18T07:26:08.414Z,99.99
2017-10-18T07:27:08.394Z,99.99
2017-10-18T07:28:08.048Z,99.99
2017-10-18T07:29:08.371Z,99.99
2017-10-18T07:30:08.331Z,99.99
2017-10-18T07:31:08.317Z,99.99
2017-10-18T07:32:08.292Z,99.99
2017-10-18T07:33:07.953Z,99.99
2017-10-18T07:34:08.260Z,99.99
2017-10-18T07:35:08.258Z,99.99
2017-10-18T07:36:07.900Z,99.99
2017-10-18T07:37:08.196Z,99.99
2017-10-18T07:38:08.193Z,99.99
2017-10-18T07:39:08.160Z,99.99
2017-10-18T07:40:08.157Z,99.99
2017-10-18T07:41:08.128Z,99.99
2017-10-18T07:42:07.792Z,99.99
2017-10-18T07:43:08.145Z,99.99
2017-10-18T07:44:08.082Z,99.99
2017-10-18T07:45:08.064Z,99.99
2017-10-18T07:46:08.030Z,99.99
2017-10-18T07:47:08.013Z,99.99
2017-10-18T07:48:07.995Z,99.99
2017-10-18T07:49:07.661Z,99.99
2017-10-18T07:50:07.981Z,99.99
2017-10-18T07:51:07.940Z,99.99
2017-10-18T07:52:07.924Z,99.99
2017-10-18T07:53:07.899Z,99.99
2017-10-18T07:54:07.893Z,99.99
2017-10-18T07:55:07.864Z,99.99
2017-10-18T07:56:07.849Z,99.99
2017-10-18T07:57:07.821Z,99.99
2017-10-18T07:58:07.629Z,99.99
2017-10-18T07:59:07.784Z,99.99
2017-10-18T08:00:07.505Z,99.99
2017-10-18T08:01:07.750Z,99.99
2017-10-18T08:02:07.730Z,99.99
2017-10-18T08:03:07.394Z,99.99
2017-10-18T08:04:07.691Z,99.99
2017-10-18T08:05:07.359Z,99.99
2017-10-18T08:06:07.669Z,99.99
2017-10-18T08:07:07.321Z,99.99
2017-10-18T08:08:07.619Z,99.99
2017-10-18T08:09:07.610Z,99.99
2017-10-18T08:10:07.588Z,99.99
2017-10-18T08:11:07.561Z,99.99
2017-10-18T08:12:07.546Z,99.99
2017-10-18T08:13:07.531Z,99.99
2017-10-18T08:14:07.522Z,99.99
2017-10-18T08:15:07.489Z,99.99
2017-10-18T08:16:07.478Z,99.99
2017-10-18T08:17:07.469Z,99.99
2017-10-18T08:18:07.436Z,99.99
2017-10-18T08:19:07.092Z,99.99
2017-10-18T08:20:07.084Z,99.99
2017-10-18T08:21:07.380Z,99.99
2017-10-18T08:22:07.360Z,99.99
2017-10-18T08:23:07.343Z,99.99
2017-10-18T08:24:07.476Z,99.99
2017-10-18T08:25:07.315Z,99.99
2017-10-18T08:26:07.296Z,99.99
2017-10-18T08:27:07.273Z,99.99
2017-10-18T08:28:07.265Z,99.99
2017-10-18T08:29:07.254Z,99.99
2017-10-18T08:30:07.228Z,99.99
2017-10-18T08:31:07.212Z,99.99
2017-10-18T08:32:07.204Z,99.99
2017-10-18T08:33:07.188Z,99.99
2017-10-18T08:34:07.154Z,99.99
2017-10-18T08:35:07.142Z,99.99
2017-10-18T08:36:07.114Z,99.99
2017-10-18T08:37:07.135Z,99.99
2017-10-18T08:38:07.093Z,99.99
2017-10-18T08:39:07.076Z,99.99
2017-10-18T08:40:07.062Z,99.99
2017-10-18T08:41:07.049Z,99.99
2017-10-18T08:42:07.015Z,99.99
2017-10-18T08:43:06.713Z,99.99
2017-10-18T08:44:06.965Z,99.99
2017-10-18T08:45:06.953Z,99.99
2017-10-18T08:46:06.932Z,99.99
2017-10-18T08:47:06.591Z,99.99
2017-10-18T08:48:06.892Z,99.99
2017-10-18T08:49:06.878Z,99.99
2017-10-18T08:50:06.851Z,99.99
2017-10-18T08:51:06.844Z,99.99
2017-10-18T08:52:06.811Z,99.99
2017-10-18T08:53:06.812Z,99.99
2017-10-18T08:54:06.786Z,99.99
2017-10-18T08:55:06.775Z,99.99
2017-10-18T08:56:06.430Z,99.99
2017-10-18T08:57:06.730Z,99.99
2017-10-18T08:58:06.711Z,99.99
2017-10-18T08:59:06.718Z,99.99
2017-10-18T09:00:06.684Z,99.99
2017-10-18T09:01:06.338Z,99.99
2017-10-18T09:02:06.640Z,99.99
2017-10-18T09:03:06.636Z,99.99
2017-10-18T09:04:06.632Z,99.99
2017-10-18T09:05:06.272Z,99.99
2017-10-18T09:06:06.258Z,99.99
2017-10-18T09:07:06.554Z,99.99
2017-10-18T09:08:06.553Z,99.99
2017-10-18T09:09:06.524Z,99.99
2017-10-18T09:10:06.514Z,99.99
2017-10-18T09:11:06.163Z,99.99
2017-10-18T09:12:06.472Z,99.99
2017-10-18T09:13:06.452Z,99.99
2017-10-18T09:14:06.109Z,99.99
2017-10-18T09:15:06.093Z,99.99
2017-10-18T09:16:06.400Z,99.99
2017-10-18T09:17:06.381Z,99.99
2017-10-18T09:18:06.365Z,99.99
2017-10-18T09:19:06.355Z,99.99
2017-10-18T09:20:06.013Z,99.99
2017-10-18T09:21:06.324Z,99.99
2017-10-18T09:22:06.301Z,99.99
2017-10-18T09:23:06.282Z,99.99
2017-10-18T09:24:06.286Z,99.99
2017-10-18T09:25:06.253Z,99.99
2017-10-18T09:26:06.245Z,99.99
2017-10-18T09:27:05.890Z,99.99
2017-10-18T09:28:05.910Z,99.99
2017-10-18T09:29:06.197Z,99.99
2017-10-18T09:30:06.175Z,99.99
2017-10-18T09:31:06.161Z,99.99
2017-10-18T09:32:06.184Z,99.99
2017-10-18T09:33:06.107Z,99.99
2017-10-18T09:34:05.772Z,99.99
2017-10-18T09:35:06.086Z,99.99
2017-10-18T09:36:06.056Z,99.99
2017-10-18T09:37:06.040Z,99.99
2017-10-18T09:38:06.076Z,99.99
2017-10-18T09:39:05.677Z,99.99
2017-10-18T09:40:05.719Z,99.99
2017-10-18T09:41:06.006Z,99.99
2017-10-18T09:42:05.959Z,99.99
2017-10-18T09:43:05.663Z,99.99
2017-10-18T09:44:05.925Z,99.99
2017-10-18T09:45:05.925Z,99.99
2017-10-18T09:46:05.993Z,99.99
2017-10-18T09:47:05.946Z,99.99
2017-10-18T09:48:05.940Z,99.99
2017-10-18T09:49:05.521Z,99.99
2017-10-18T09:50:05.881Z,99.99
2017-10-18T09:51:05.812Z,99.99
2017-10-18T09:52:05.862Z,99.99
2017-10-18T09:53:05.834Z,99.99
2017-10-18T09:54:05.761Z,99.99
2017-10-18T09:55:05.410Z,99.99
2017-10-18T09:56:05.722Z,99.99
2017-10-18T09:57:05.722Z,99.99
2017-10-18T09:58:05.752Z,99.99
2017-10-18T09:59:05.341Z,99.99
2017-10-18T10:00:05.372Z,99.99
2017-10-18T10:01:05.641Z,99.99
2017-10-18T10:02:05.644Z,99.99
2017-10-18T10:03:05.609Z,99.99
2017-10-18T10:04:05.595Z,99.99
2017-10-18T10:05:05.635Z,99.99
2017-10-18T10:06:05.678Z,99.99
2017-10-18T10:07:05.214Z,99.99
2017-10-18T10:08:05.207Z,99.99
2017-10-18T10:09:05.189Z,99.99
2017-10-18T10:10:05.494Z,99.99
2017-10-18T10:11:05.482Z,99.99
2017-10-18T10:12:05.459Z,99.99
2017-10-18T10:13:05.535Z,99.99
2017-10-18T10:14:05.427Z,99.99
2017-10-18T10:15:05.411Z,99.99
2017-10-18T10:16:05.394Z,99.99
2017-10-18T10:17:05.388Z,99.99
2017-10-18T10:18:05.373Z,99.99
2017-10-18T10:19:05.362Z,99.99
2017-10-18T10:20:05.322Z,99.99
2017-10-18T10:21:05.399Z,99.99
2017-10-18T10:22:05.290Z,99.99
2017-10-18T10:23:05.280Z,99.99
2017-10-18T10:24:05.268Z,99.99
2017-10-18T10:25:04.926Z,99.99
2017-10-18T10:26:05.232Z,99.99
2017-10-18T10:27:04.942Z,99.99
2017-10-18T10:28:05.201Z,99.99
2017-10-18T10:29:05.198Z,99.99
2017-10-18T10:30:05.183Z,99.99
2017-10-18T10:31:05.172Z,99.99
2017-10-18T10:32:04.826Z,99.99
2017-10-18T10:33:05.151Z,99.99
2017-10-18T10:34:05.135Z,99.99
2017-10-18T10:35:05.112Z,99.99
2017-10-18T10:36:05.101Z,99.99
2017-10-18T10:37:05.103Z,99.99
2017-10-18T10:38:05.089Z,99.99
2017-10-18T10:39:05.088Z,99.99
2017-10-18T10:40:04.746Z,99.99
2017-10-18T10:41:05.042Z,99.99
2017-10-18T10:42:05.031Z,99.99
2017-10-18T10:43:05.042Z,99.99
2017-10-18T10:44:04.690Z,99.99
2017-10-18T10:45:05.015Z,99.99
2017-10-18T10:46:04.687Z,99.99
2017-10-18T10:47:04.991Z,99.99
2017-10-18T10:48:04.989Z,99.46
2017-10-18T10:49:04.972Z,98.97
2017-10-18T10:50:04.966Z,98.93
2017-10-18T10:51:04.966Z,97.96
2017-10-18T10:52:04.940Z,97.96
2017-10-18T10:53:04.929Z,96.99
2017-10-18T10:54:04.928Z,97.33
2017-10-18T10:55:04.905Z,96.65
2017-10-18T10:56:04.586Z,95.49
2017-10-18T10:57:04.885Z,95.78
2017-10-18T10:58:04.894Z,95.29
2017-10-18T10:59:04.865Z,95.05
2017-10-18T11:00:04.858Z,94.09
2017-10-18T11:01:04.862Z,94.47
2017-10-18T11:02:04.848Z,93.6
2017-10-18T11:03:04.826Z,93.12
2017-10-18T11:04:04.816Z,93.02
2017-10-18T11:05:04.813Z,93.51
2017-10-18T11:06:04.801Z,92.87
2017-10-18T11:07:04.805Z,92.1
2017-10-18T11:08:04.472Z,92
2017-10-18T11:09:04.773Z,92.39
2017-10-18T11:10:04.781Z,93.75
2017-10-18T11:11:04.752Z,94.33
2017-10-18T11:12:04.765Z,93.85
2017-10-18T11:13:04.735Z,93.94
2017-10-18T11:14:04.735Z,93.31
2017-10-18T11:15:04.726Z,92.15
2017-10-18T11:16:04.707Z,90.84
2017-10-18T11:17:04.700Z,90.84
2017-10-18T11:18:04.929Z,90.45
2017-10-18T11:19:04.681Z,90.36
2017-10-18T11:20:04.681Z,90.26
2017-10-18T11:21:04.675Z,89.53
2017-10-18T11:22:04.653Z,88.95
2017-10-18T11:23:04.656Z,87.88
2017-10-18T11:24:04.642Z,87.98
2017-10-18T11:25:04.638Z,88.12
2017-10-18T11:26:04.622Z,87.82
2017-10-18T11:27:04.624Z,88.12
2017-10-18T11:28:04.595Z,88.46
2017-10-18T11:29:04.268Z,88.89
2017-10-18T11:30:04.581Z,88.99
2017-10-18T11:31:04.241Z,89.09
2017-10-18T11:32:04.244Z,88.7
2017-10-18T11:33:04.553Z,89.04
2017-10-18T11:34:04.553Z,88.41
2017-10-18T11:35:04.531Z,87.24
2017-10-18T11:36:04.531Z,87.34
2017-10-18T11:37:04.547Z,87.78
2017-10-18T11:38:04.501Z,87.78
2017-10-18T11:39:04.170Z,87.59
2017-10-18T11:40:04.161Z,88.85
2017-10-18T11:41:04.476Z,88.46
2017-10-18T11:42:04.470Z,88.65
2017-10-18T11:43:04.450Z,89.04
2017-10-18T11:44:04.450Z,89.14
2017-10-18T11:45:04.442Z,87.34
2017-10-18T11:46:04.458Z,87.44
2017-10-18T11:47:04.096Z,86.37
2017-10-18T11:48:04.410Z,85.69
2017-10-18T11:49:04.428Z,85.21
2017-10-18T11:50:04.486Z,86.18
2017-10-18T11:51:04.394Z,85.55
2017-10-18T11:52:04.441Z,86.27
2017-10-18T11:53:04.370Z,85.6
2017-10-18T11:54:04.361Z,84.67
2017-10-18T11:55:04.339Z,84.72
2017-10-18T11:56:04.410Z,83.37
2017-10-18T11:57:04.330Z,82.59
2017-10-18T11:58:04.391Z,82.78
2017-10-18T11:59:04.311Z,82.5
2017-10-18T12:00:04.361Z,82.69
2017-10-18T12:01:04.295Z,82.59
2017-10-18T12:02:04.292Z,82.3
2017-10-18T12:03:04.280Z,81.91
2017-10-18T12:04:04.281Z,81.33
2017-10-18T12:05:04.262Z,81.82
2017-10-18T12:06:04.252Z,80.75
2017-10-18T12:07:04.241Z,81.13
2017-10-18T12:08:04.229Z,81.43
2017-10-18T12:09:04.225Z,81.91
2017-10-18T12:10:04.216Z,81.91
2017-10-18T12:11:04.250Z,82.01
2017-10-18T12:12:03.871Z,80.65
2017-10-18T12:13:04.271Z,81.52
2017-10-18T12:14:04.181Z,81.91
2017-10-18T12:15:04.162Z,81.91
2017-10-18T12:16:04.018Z,81.52
2017-10-18T12:17:04.161Z,81.13
2017-10-18T12:18:04.435Z,82.17
2017-10-18T12:19:04.134Z,82.35
2017-10-18T12:20:03.802Z,82.94
2017-10-18T12:21:04.109Z,82.75
2017-10-18T12:22:04.111Z,82.2
2017-10-18T12:23:04.110Z,82.5
2017-10-18T12:24:03.761Z,82.2
2017-10-18T12:25:04.074Z,82.05
2017-10-18T12:26:04.082Z,82.1
2017-10-18T12:27:04.063Z,82.78
2017-10-18T12:28:04.072Z,82.98
2017-10-18T12:29:03.738Z,82.88
2017-10-18T12:30:04.031Z,83.37
2017-10-18T12:31:04.020Z,82.05
2017-10-18T12:32:04.021Z,81.95
2017-10-18T12:33:03.732Z,81.95
2017-10-18T12:34:03.676Z,82.53
2017-10-18T12:35:04.052Z,82.15
2017-10-18T12:36:03.969Z,81.85
2017-10-18T12:37:04.118Z,80.93
2017-10-18T12:38:03.972Z,81.27
2017-10-18T12:39:03.666Z,81.18
2017-10-18T12:40:03.952Z,81.08
2017-10-18T12:41:04.043Z,80.79
2017-10-18T12:42:03.921Z,80.98
2017-10-18T12:43:03.664Z,80.5
2017-10-18T12:44:03.580Z,80.25
2017-10-18T12:45:03.977Z,80.54
2017-10-18T12:46:03.890Z,80.73
2017-10-18T12:47:03.980Z,80.25
2017-10-18T12:48:03.920Z,79.37
2017-10-18T12:49:03.911Z,79.18
2017-10-18T12:50:03.880Z,80.05
2017-10-18T12:51:03.872Z,79.28
2017-10-18T12:52:03.855Z,79.47
2017-10-18T12:53:03.500Z,80.79